createdAt,value
2018-11-03T00:01:25.433Z,99.90
2018-11-03T00:03:54.042Z,99.90
2018-11-03T00:06:22.631Z,99.90
2018-11-03T00:08:51.205Z,99.90
2018-11-03T00:11:19.915Z,99.90
2018-11-03T00:13:48.494Z,99.90
2018-11-03T00:16:17.115Z,99.90
2018-11-03T00:18:45.686Z,99.90
2018-11-03T00:21:14.304Z,99.90
2018-11-03T00:23:42.946Z,99.90
2018-11-03T00:26:11.585Z,99.90
2018-11-03T00:28:40.182Z,99.90
2018-11-03T00:31:08.774Z,99.90
2018-11-03T00:33:37.355Z,99.90
2018-11-03T00:36:06.305Z,99.90
2018-11-03T00:38:34.863Z,99.90
2018-11-03T00:41:03.428Z,99.90
2018-11-03T00:43:31.963Z,99.90
2018-11-03T00:46:00.518Z,99.90
2018-11-03T00:48:29.101Z,99.90
2018-11-03T00:50:57.638Z,99.90
2018-11-03T00:53:26.186Z,99.90
2018-11-03T00:55:54.718Z,99.90
2018-11-03T00:58:23.281Z,99.90
2018-11-03T01:00:51.817Z,99.90
2018-11-03T01:03:20.378Z,99.90
2018-11-03T01:05:48.926Z,99.90
2018-11-03T01:08:17.494Z,99.90
2018-11-03T01:10:46.031Z,99.90
2018-11-03T01:13:14.594Z,99.90
2018-11-03T01:15:43.122Z,99.90
2018-11-03T01:18:11.691Z,99.90
2018-11-03T01:20:40.234Z,99.90
2018-11-03T01:23:08.785Z,99.90
2018-11-03T01:25:37.335Z,99.90
2018-11-03T01:28:05.930Z,99.90
2018-11-03T01:30:34.448Z,99.90
2018-11-03T01:33:03.026Z,99.90
2018-11-03T01:35:31.550Z,99.90
2018-11-03T01:38:00.062Z,99.90
2018-11-03T01:40:28.614Z,99.90
2018-11-03T01:42:57.134Z,99.90
2018-11-03T01:45:25.698Z,99.90
2018-11-03T01:47:54.209Z,99.90
2018-11-03T01:50:22.777Z,99.90
2018-11-03T01:52:51.298Z,99.90
2018-11-03T01:55:19.844Z,99.90
2018-11-03T01:57:48.365Z,99.90
2018-11-03T02:00:16.914Z,99.90
2018-11-03T02:02:46.314Z,99.90
2018-11-03T02:05:14.880Z,99.90
2018-11-03T02:07:43.403Z,99.90
2018-11-03T02:10:12.706Z,99.90
2018-11-03T02:12:41.679Z,99.90
2018-11-03T02:15:10.706Z,99.90
2018-11-03T02:17:39.258Z,99.90
2018-11-03T02:20:09.053Z,99.90
2018-11-03T02:22:38.155Z,99.90
2018-11-03T02:25:07.078Z,99.90
2018-11-03T02:27:35.642Z,99.90
2018-11-03T02:30:04.250Z,99.90
2018-11-03T02:32:32.861Z,99.90
2018-11-03T02:35:01.364Z,99.90
2018-11-03T02:37:29.962Z,99.90
2018-11-03T02:39:58.501Z,99.90
2018-11-03T02:42:27.082Z,99.90
2018-11-03T02:44:55.584Z,99.90
2018-11-03T02:47:24.152Z,99.90
2018-11-03T02:49:52.678Z,99.90
2018-11-03T02:52:21.246Z,99.90
2018-11-03T02:54:49.778Z,99.90
2018-11-03T02:57:18.326Z,99.90
2018-11-03T02:59:46.919Z,99.90
2018-11-03T03:02:15.490Z,99.90
2018-11-03T03:04:44.050Z,99.90
2018-11-03T03:07:12.574Z,99.90
2018-11-03T03:09:41.122Z,99.90
2018-11-03T03:12:09.646Z,99.90
2018-11-03T03:14:38.190Z,99.90
2018-11-03T03:17:06.717Z,99.90
2018-11-03T03:19:35.220Z,99.90
2018-11-03T03:22:03.700Z,99.90
2018-11-03T03:24:32.224Z,99.90
2018-11-03T03:27:00.728Z,99.90
2018-11-03T03:29:29.293Z,99.90
2018-11-03T03:31:57.716Z,99.90
2018-11-03T03:34:26.229Z,99.90
2018-11-03T03:36:54.689Z,99.90
2018-11-03T03:39:23.193Z,99.90
2018-11-03T03:41:51.672Z,99.90
2018-11-03T03:44:20.156Z,99.90
2018-11-03T03:46:48.656Z,99.90
2018-11-03T03:49:17.189Z,99.90
2018-11-03T03:51:45.632Z,99.90
2018-11-03T03:54:14.119Z,99.90
2018-11-03T03:56:42.569Z,99.90
2018-11-03T03:59:11.066Z,99.90
2018-11-03T04:01:39.533Z,99.90
2018-11-03T04:04:08.001Z,99.90
2018-11-03T04:06:36.492Z,99.90
2018-11-03T04:09:06.904Z,99.90
2018-11-03T04:11:35.400Z,99.90
2018-11-03T04:14:03.931Z,99.90
2018-11-03T04:16:32.425Z,99.90
2018-11-03T04:19:00.892Z,99.90
2018-11-03T04:21:30.688Z,99.90
2018-11-03T04:23:59.668Z,99.90
2018-11-03T04:26:29.605Z,99.90
2018-11-03T04:28:58.776Z,99.90
2018-11-03T04:31:27.963Z,99.90
2018-11-03T04:33:56.684Z,99.90
2018-11-03T04:36:25.226Z,99.90
2018-11-03T04:38:53.716Z,99.90
2018-11-03T04:41:22.183Z,99.90
2018-11-03T04:43:50.720Z,99.90
2018-11-03T04:46:19.181Z,99.90
2018-11-03T04:48:47.706Z,99.90
2018-11-03T04:51:16.170Z,99.90
2018-11-03T04:53:44.626Z,99.90
2018-11-03T04:56:13.104Z,99.90
2018-11-03T04:58:41.568Z,99.90
2018-11-03T05:01:10.064Z,99.90
2018-11-03T05:03:38.532Z,99.90
2018-11-03T05:06:07.040Z,99.90
2018-11-03T05:08:35.528Z,99.90
2018-11-03T05:11:04.048Z,99.90
2018-11-03T05:13:32.536Z,99.90
2018-11-03T05:16:01.003Z,99.90
2018-11-03T05:18:29.509Z,99.90
2018-11-03T05:20:57.964Z,99.90
2018-11-03T05:23:26.463Z,99.90
2018-11-03T05:25:54.953Z,99.90
2018-11-03T05:28:23.444Z,99.90
2018-11-03T05:30:51.920Z,99.90
2018-11-03T05:33:20.425Z,99.90
2018-11-03T05:35:48.900Z,99.90
2018-11-03T05:38:17.364Z,99.90
2018-11-03T05:40:45.860Z,99.90
2018-11-03T05:43:14.320Z,99.90
2018-11-03T05:45:42.803Z,99.90
2018-11-03T05:48:11.257Z,99.90
2018-11-03T05:50:45.313Z,99.90
2018-11-03T05:53:13.777Z,99.90
2018-11-03T05:55:42.276Z,99.90
2018-11-03T05:58:10.736Z,99.90
2018-11-03T06:00:39.214Z,99.90
2018-11-03T06:03:07.692Z,99.90
2018-11-03T06:05:36.153Z,99.90
2018-11-03T06:08:04.657Z,99.90
2018-11-03T06:10:33.124Z,99.90
2018-11-03T06:13:01.622Z,99.90
2018-11-03T06:15:30.176Z,99.90
2018-11-03T06:17:58.592Z,99.90
2018-11-03T06:20:27.193Z,99.90
2018-11-03T06:22:55.765Z,99.90
2018-11-03T06:25:24.189Z,99.90
2018-11-03T06:27:52.691Z,99.90
2018-11-03T06:30:21.216Z,99.90
2018-11-03T06:32:49.692Z,99.90
2018-11-03T06:35:18.253Z,99.90
2018-11-03T06:37:46.694Z,99.90
2018-11-03T06:40:15.180Z,99.90
2018-11-03T06:42:43.651Z,99.90
2018-11-03T06:45:12.157Z,99.90
2018-11-03T06:47:40.622Z,99.90
2018-11-03T06:50:09.191Z,99.90
2018-11-03T06:52:37.652Z,99.90
2018-11-03T06:55:07.161Z,99.90
2018-11-03T06:57:35.768Z,99.90
2018-11-03T07:00:05.328Z,99.90
2018-11-03T07:02:33.817Z,99.90
2018-11-03T07:05:02.321Z,99.90
2018-11-03T07:07:30.792Z,99.90
2018-11-03T07:09:59.289Z,99.90
2018-11-03T07:12:28.290Z,99.90
2018-11-03T07:14:56.444Z,99.90
2018-11-03T07:17:24.956Z,99.90
2018-11-03T07:19:53.452Z,99.90
2018-11-03T07:22:21.945Z,99.90
2018-11-03T07:24:50.936Z,99.90
2018-11-03T07:27:19.448Z,99.90
2018-11-03T07:29:47.959Z,99.90
2018-11-03T07:32:16.435Z,99.90
2018-11-03T07:34:44.896Z,99.90
2018-11-03T07:37:13.401Z,99.90
2018-11-03T07:39:41.876Z,99.90
2018-11-03T07:42:10.380Z,99.90
2018-11-03T07:44:38.849Z,99.90
2018-11-03T07:47:07.373Z,99.90
2018-11-03T07:49:35.868Z,99.90
2018-11-03T07:52:04.365Z,99.90
2018-11-03T07:54:32.892Z,99.90
2018-11-03T07:57:01.348Z,99.90
2018-11-03T07:59:29.851Z,99.90
2018-11-03T08:01:58.328Z,99.90
2018-11-03T08:04:26.828Z,99.90
2018-11-03T08:06:55.304Z,99.90
2018-11-03T08:09:23.796Z,99.90
2018-11-03T08:11:52.256Z,99.90
2018-11-03T08:14:20.763Z,99.90
2018-11-03T08:16:49.241Z,99.90
2018-11-03T08:19:17.745Z,99.90
2018-11-03T08:21:46.224Z,99.90
2018-11-03T08:24:14.720Z,99.90
2018-11-03T08:26:43.228Z,99.90
2018-11-03T08:29:11.728Z,99.90
2018-11-03T08:31:40.345Z,99.90
2018-11-03T08:34:08.697Z,99.90
2018-11-03T08:36:37.224Z,99.90
2018-11-03T08:39:08.147Z,99.90
2018-11-03T08:41:36.625Z,99.90
2018-11-03T08:44:05.172Z,99.90
2018-11-03T08:46:33.636Z,99.90
2018-11-03T08:49:02.170Z,99.90
2018-11-03T08:51:30.637Z,99.90
2018-11-03T08:53:59.129Z,99.90
2018-11-03T08:56:27.609Z,99.90
2018-11-03T08:58:56.099Z,99.90
2018-11-03T09:01:24.582Z,99.90
2018-11-03T09:03:53.082Z,99.90
2018-11-03T09:06:21.552Z,99.90
2018-11-03T09:08:50.096Z,99.90
2018-11-03T09:11:18.564Z,99.90
2018-11-03T09:13:47.060Z,99.90
2018-11-03T09:16:15.529Z,99.90
2018-11-03T09:18:44.041Z,99.90
2018-11-03T09:21:12.521Z,99.90
2018-11-03T09:23:40.983Z,99.90
2018-11-03T09:26:09.480Z,99.90
2018-11-03T09:28:37.964Z,99.90
2018-11-03T09:31:06.504Z,99.90
2018-11-03T09:33:35.005Z,99.90
2018-11-03T09:36:03.519Z,99.90
2018-11-03T09:38:32.015Z,99.90
2018-11-03T09:41:00.505Z,99.90
2018-11-03T09:43:29.026Z,96.00
2018-11-03T09:45:57.460Z,90.60
2018-11-03T09:48:25.932Z,83.40
2018-11-03T09:50:54.458Z,80.00
2018-11-03T09:53:22.936Z,79.10
2018-11-03T09:55:51.445Z,78.60
2018-11-03T09:58:19.907Z,78.30
2018-11-03T10:00:48.416Z,77.30
2018-11-03T10:03:16.885Z,78.40
2018-11-03T10:05:45.392Z,80.70
2018-11-03T10:08:13.859Z,82.90
2018-11-03T10:10:42.363Z,85.10
2018-11-03T10:13:10.823Z,86.00
2018-11-03T10:15:39.355Z,87.40
2018-11-03T10:18:07.846Z,87.90
2018-11-03T10:20:36.340Z,88.00
2018-11-03T10:23:05.028Z,90.20
2018-11-03T10:25:33.392Z,90.20
2018-11-03T10:28:01.857Z,90.30
2018-11-03T10:30:30.364Z,90.30
2018-11-03T10:32:58.878Z,90.40
2018-11-03T10:35:27.384Z,90.70
2018-11-03T10:37:55.856Z,91.40
2018-11-03T10:40:24.357Z,91.30
2018-11-03T10:42:52.837Z,92.00
2018-11-03T10:45:21.353Z,92.40
2018-11-03T10:47:49.821Z,92.90
2018-11-03T10:50:19.189Z,93.60
2018-11-03T10:52:48.048Z,94.80
2018-11-03T10:55:18.021Z,96.30
2018-11-03T10:57:46.601Z,96.90
2018-11-03T11:00:22.690Z,96.80
2018-11-03T11:02:56.828Z,96.50
2018-11-03T11:05:30.803Z,97.10
2018-11-03T11:08:04.729Z,97.20
2018-11-03T11:10:38.548Z,97.40
2018-11-03T11:13:15.003Z,98.20
2018-11-03T11:15:43.520Z,98.30
2018-11-03T11:18:11.988Z,98.70
2018-11-03T11:20:40.493Z,99.20
2018-11-03T11:23:09.075Z,99.60
2018-11-03T11:25:37.577Z,99.70
2018-11-03T11:28:06.308Z,99.50
2018-11-03T11:30:37.691Z,99.40
2018-11-03T11:33:09.332Z,99.90
2018-11-03T11:35:37.869Z,99.90
2018-11-03T11:38:07.300Z,99.90
2018-11-03T11:40:36.016Z,99.90
2018-11-03T11:43:04.901Z,99.90
2018-11-03T11:45:33.371Z,99.90
2018-11-03T11:48:01.828Z,99.90
2018-11-03T11:50:30.372Z,99.90
2018-11-03T11:52:58.854Z,99.90
2018-11-03T11:55:27.350Z,99.90
2018-11-03T11:57:55.818Z,99.90
2018-11-03T12:00:24.374Z,99.90
2018-11-03T12:02:52.824Z,99.90
2018-11-03T12:05:21.325Z,99.90
2018-11-03T12:07:49.792Z,99.90
2018-11-03T12:10:18.369Z,99.90
2018-11-03T12:12:46.772Z,99.90
2018-11-03T12:15:15.277Z,99.90
2018-11-03T12:17:43.749Z,99.90
2018-11-03T12:20:12.252Z,99.90
2018-11-03T12:22:40.716Z,99.90
2018-11-03T12:25:10.432Z,99.90
2018-11-03T12:27:39.188Z,99.90
2018-11-03T12:30:11.096Z,99.90
2018-11-03T12:32:39.940Z,99.90
2018-11-03T12:35:08.528Z,99.90
2018-11-03T12:37:37.520Z,99.90
2018-11-03T12:40:08.153Z,99.90
2018-11-03T12:42:36.690Z,99.90
2018-11-03T12:45:05.957Z,99.90
2018-11-03T12:47:34.448Z,99.90
2018-11-03T12:50:02.986Z,99.90
2018-11-03T12:52:32.194Z,99.90
2018-11-03T12:55:01.212Z,99.90
2018-11-03T12:57:29.688Z,99.90
2018-11-03T12:59:58.188Z,99.90
2018-11-03T13:02:26.656Z,99.90
2018-11-03T13:04:55.205Z,99.90
2018-11-03T13:07:23.750Z,99.90
2018-11-03T13:09:52.164Z,99.90
2018-11-03T13:12:20.718Z,99.90
2018-11-03T13:14:49.114Z,99.90
2018-11-03T13:17:17.572Z,99.90
2018-11-03T13:19:46.056Z,99.90
2018-11-03T13:22:14.552Z,99.90
2018-11-03T13:24:43.008Z,99.90
2018-11-03T13:27:11.505Z,99.90
2018-11-03T13:29:39.971Z,99.90
2018-11-03T13:32:08.469Z,99.90
2018-11-03T13:34:36.932Z,99.90
2018-11-03T13:37:05.611Z,99.90
2018-11-03T13:39:34.067Z,99.90
2018-11-03T13:42:02.556Z,99.90
2018-11-03T13:44:31.023Z,99.90
2018-11-03T13:46:59.543Z,99.90
2018-11-03T13:49:27.976Z,99.90
2018-11-03T13:51:56.465Z,99.90
2018-11-03T13:54:24.929Z,99.90
2018-11-03T13:56:53.520Z,99.90
2018-11-03T13:59:21.932Z,99.90
2018-11-03T14:01:50.428Z,99.90
2018-11-03T14:04:18.884Z,99.90
2018-11-03T14:06:53.519Z,99.90
2018-11-03T14:09:21.985Z,99.90
2018-11-03T14:11:50.468Z,99.90
2018-11-03T14:14:18.920Z,99.90
2018-11-03T14:16:47.416Z,99.90
2018-11-03T14:19:15.880Z,99.90
2018-11-03T14:21:44.359Z,99.90
2018-11-03T14:24:12.808Z,99.90
2018-11-03T14:26:41.288Z,99.90
2018-11-03T14:29:09.771Z,99.90
2018-11-03T14:31:38.244Z,99.90
2018-11-03T14:34:06.760Z,99.90
2018-11-03T14:36:35.240Z,99.90
2018-11-03T14:39:04.432Z,99.90
2018-11-03T14:41:32.917Z,99.90
2018-11-03T14:44:01.388Z,99.90
2018-11-03T14:46:30.010Z,99.90
2018-11-03T14:48:58.500Z,99.90
2018-11-03T14:51:27.012Z,99.90
2018-11-03T14:53:55.512Z,99.90
2018-11-03T14:56:24.018Z,99.90
2018-11-03T14:58:52.464Z,99.90
2018-11-03T15:01:20.944Z,99.90
2018-11-03T15:03:49.392Z,99.90
2018-11-03T15:06:17.871Z,99.90
2018-11-03T15:08:46.328Z,99.90
2018-11-03T15:11:14.812Z,99.90
2018-11-03T15:13:43.320Z,99.90
2018-11-03T15:16:11.812Z,99.90
2018-11-03T15:18:40.260Z,99.90
2018-11-03T15:21:08.745Z,99.90
2018-11-03T15:23:37.201Z,99.90
2018-11-03T15:26:05.729Z,99.90
2018-11-03T15:28:34.185Z,99.90
2018-11-03T15:31:02.661Z,99.90
2018-11-03T15:33:31.152Z,99.90
2018-11-03T15:35:59.644Z,99.90
2018-11-03T15:38:28.096Z,99.90
2018-11-03T15:40:56.577Z,99.90
2018-11-03T15:43:25.032Z,99.90
2018-11-03T15:45:53.516Z,99.90
2018-11-03T15:48:21.977Z,99.90
2018-11-03T15:50:51.037Z,99.90
2018-11-03T15:53:20.009Z,99.90
2018-11-03T15:55:48.503Z,99.90
2018-11-03T15:58:16.980Z,99.90
2018-11-03T16:00:45.457Z,99.90
2018-11-03T16:03:13.948Z,99.90
2018-11-03T16:05:42.420Z,99.90
2018-11-03T16:08:10.920Z,99.90
2018-11-03T16:10:39.368Z,99.90
2018-11-03T16:13:08.052Z,99.90
2018-11-03T16:15:36.531Z,99.90
2018-11-03T16:18:05.229Z,99.90
2018-11-03T16:20:33.712Z,99.90
2018-11-03T16:23:02.186Z,99.90
2018-11-03T16:25:30.707Z,99.90
2018-11-03T16:27:59.152Z,99.90
2018-11-03T16:30:27.656Z,99.90
2018-11-03T16:32:56.185Z,99.90
2018-11-03T16:35:24.652Z,99.90
2018-11-03T16:37:53.156Z,99.90
2018-11-03T16:40:21.612Z,99.90
2018-11-03T16:42:50.096Z,99.90
2018-11-03T16:45:18.561Z,99.90
2018-11-03T16:47:47.069Z,99.90
2018-11-03T16:50:16.304Z,99.90
2018-11-03T16:52:44.966Z,99.90
2018-11-03T16:55:14.392Z,99.90
2018-11-03T16:57:42.892Z,99.90
2018-11-03T17:00:14.405Z,99.90
2018-11-03T17:02:43.233Z,99.90
2018-11-03T17:05:12.917Z,99.90
2018-11-03T17:07:41.433Z,99.90
2018-11-03T17:10:12.401Z,99.90
2018-11-03T17:12:42.485Z,99.90
2018-11-03T17:15:11.907Z,99.90
2018-11-03T17:17:40.392Z,99.90
2018-11-03T17:20:09.339Z,99.90
2018-11-03T17:22:37.872Z,99.90
2018-11-03T17:25:07.915Z,99.90
2018-11-03T17:27:36.343Z,99.90
2018-11-03T17:30:05.757Z,99.90
2018-11-03T17:32:34.266Z,99.90
2018-11-03T17:35:02.778Z,99.90
2018-11-03T17:37:31.240Z,99.90
2018-11-03T17:39:59.732Z,99.90
2018-11-03T17:42:28.193Z,99.90
2018-11-03T17:44:56.680Z,99.90
2018-11-03T17:47:25.136Z,99.90
2018-11-03T17:49:53.624Z,99.90
2018-11-03T17:52:22.099Z,99.90
2018-11-03T17:54:50.646Z,99.90
2018-11-03T17:57:19.059Z,99.90
2018-11-03T17:59:47.632Z,99.90
2018-11-03T18:02:16.078Z,99.90
2018-11-03T18:04:44.510Z,99.90
2018-11-03T18:07:12.978Z,99.90
2018-11-03T18:09:41.465Z,99.90
2018-11-03T18:12:09.928Z,99.90
2018-11-03T18:14:38.409Z,99.90
2018-11-03T18:17:06.864Z,99.90
2018-11-03T18:19:35.406Z,99.90
2018-11-03T18:22:03.865Z,99.90
2018-11-03T18:24:32.391Z,99.90
2018-11-03T18:27:00.841Z,99.90
2018-11-03T18:29:29.357Z,99.90
2018-11-03T18:31:57.822Z,99.90
2018-11-03T18:34:26.332Z,99.90
2018-11-03T18:36:54.797Z,99.90
2018-11-03T18:39:23.337Z,99.90
2018-11-03T18:41:51.800Z,99.90
2018-11-03T18:44:20.270Z,99.90
2018-11-03T18:46:48.873Z,99.90
2018-11-03T18:49:17.237Z,99.90
2018-11-03T18:51:45.772Z,99.90
2018-11-03T18:54:14.432Z,99.90
2018-11-03T18:56:42.913Z,99.90
2018-11-03T18:59:11.390Z,99.90
2018-11-03T19:01:39.894Z,99.90
2018-11-03T19:04:08.348Z,99.90
2018-11-03T19:06:36.836Z,99.90
2018-11-03T19:09:06.999Z,99.90
2018-11-03T19:11:35.492Z,99.90
2018-11-03T19:14:04.002Z,99.90
2018-11-03T19:16:32.504Z,99.90
2018-11-03T19:19:00.983Z,99.90
2018-11-03T19:21:29.509Z,99.90
2018-11-03T19:23:57.999Z,99.90
2018-11-03T19:26:26.508Z,99.90
2018-11-03T19:28:54.965Z,99.90
2018-11-03T19:31:23.440Z,99.90
2018-11-03T19:33:51.970Z,99.90
2018-11-03T19:36:20.516Z,99.90
2018-11-03T19:38:48.972Z,99.90
2018-11-03T19:41:17.497Z,99.90
2018-11-03T19:43:45.959Z,99.90
2018-11-03T19:46:14.460Z,99.90
2018-11-03T19:48:42.929Z,99.90
2018-11-03T19:51:11.421Z,99.90
2018-11-03T19:53:39.880Z,99.90
2018-11-03T19:56:08.393Z,99.90
2018-11-03T19:58:36.880Z,99.90
2018-11-03T20:01:06.049Z,99.90
2018-11-03T20:03:34.521Z,99.90
2018-11-03T20:06:03.008Z,99.90
2018-11-03T20:08:31.464Z,99.90
2018-11-03T20:10:59.949Z,99.90
2018-11-03T20:13:28.403Z,99.90
2018-11-03T20:15:56.896Z,99.90
2018-11-03T20:18:25.352Z,99.90
2018-11-03T20:20:53.845Z,99.90
2018-11-03T20:23:22.308Z,99.90
2018-11-03T20:25:50.788Z,99.90
2018-11-03T20:28:19.244Z,99.90
2018-11-03T20:30:47.747Z,99.90
2018-11-03T20:33:16.256Z,99.90
2018-11-03T20:35:44.707Z,99.90
2018-11-03T20:38:13.196Z,99.90
2018-11-03T20:40:41.649Z,99.90
2018-11-03T20:43:10.128Z,99.90
2018-11-03T20:45:38.576Z,99.90
2018-11-03T20:48:07.056Z,99.90
2018-11-03T20:50:35.513Z,99.90
2018-11-03T20:53:04.100Z,99.90
2018-11-03T20:55:32.565Z,99.90
2018-11-03T20:58:01.051Z,99.90
2018-11-03T21:00:29.512Z,99.90
2018-11-03T21:02:57.992Z,99.90
2018-11-03T21:05:26.450Z,99.90
2018-11-03T21:07:54.968Z,99.90
2018-11-03T21:10:23.399Z,99.90
2018-11-03T21:12:51.892Z,99.90
2018-11-03T21:15:20.361Z,99.90
2018-11-03T21:17:48.815Z,99.90
2018-11-03T21:20:17.301Z,99.90
2018-11-03T21:22:45.790Z,99.90
2018-11-03T21:25:14.256Z,99.90
2018-11-03T21:27:42.756Z,99.90
2018-11-03T21:30:11.868Z,99.90
2018-11-03T21:32:41.073Z,99.90
2018-11-03T21:35:09.484Z,99.90
2018-11-03T21:37:38.209Z,99.90
2018-11-03T21:40:07.357Z,99.90
2018-11-03T21:42:35.853Z,99.90
2018-11-03T21:45:04.422Z,99.90
2018-11-03T21:47:32.908Z,99.90
2018-11-03T21:50:01.357Z,99.90
2018-11-03T21:52:29.853Z,99.90
2018-11-03T21:54:58.316Z,99.90
2018-11-03T21:57:26.796Z,99.90
2018-11-03T21:59:55.248Z,99.90
2018-11-03T22:02:23.728Z,99.90
2018-11-03T22:04:52.185Z,99.90
2018-11-03T22:07:20.675Z,99.90
2018-11-03T22:09:49.132Z,99.90
2018-11-03T22:12:17.616Z,99.90
2018-11-03T22:14:46.064Z,99.90
2018-11-03T22:17:14.520Z,99.90
2018-11-03T22:19:43.000Z,99.90
2018-11-03T22:22:11.493Z,99.90
2018-11-03T22:24:39.973Z,99.90
2018-11-03T22:27:08.472Z,99.90
2018-11-03T22:29:36.933Z,99.90
2018-11-03T22:32:05.473Z,99.90
2018-11-03T22:34:33.928Z,99.90
2018-11-03T22:37:02.414Z,99.90
2018-11-03T22:39:30.905Z,99.90
2018-11-03T22:41:59.437Z,99.90
2018-11-03T22:44:27.868Z,99.90
2018-11-03T22:46:56.380Z,99.90
2018-11-03T22:49:24.837Z,99.90
2018-11-03T22:51:53.391Z,99.90
2018-11-03T22:54:21.814Z,99.90
2018-11-03T22:56:50.366Z,99.90
2018-11-03T22:59:18.950Z,99.90
2018-11-03T23:01:47.320Z,99.90
2018-11-03T23:04:15.768Z,99.90
2018-11-03T23:06:44.260Z,99.90
2018-11-03T23:09:12.721Z,99.90
2018-11-03T23:11:41.200Z,99.90
2018-11-03T23:14:09.665Z,99.90
2018-11-03T23:16:38.148Z,99.90
2018-11-03T23:19:06.617Z,99.90
2018-11-03T23:21:35.118Z,99.90
2018-11-03T23:24:03.640Z,99.90
2018-11-03T23:26:32.092Z,99.90
2018-11-03T23:29:00.572Z,99.90
2018-11-03T23:31:29.032Z,99.90
2018-11-03T23:33:57.519Z,99.90
2018-11-03T23:36:25.968Z,99.90
2018-11-03T23:38:54.477Z,99.90
2018-11-03T23:41:22.981Z,99.90
2018-11-03T23:43:51.460Z,99.90
2018-11-03T23:46:19.929Z,99.90
2018-11-03T23:48:48.440Z,99.90
2018-11-03T23:51:16.893Z,99.90
2018-11-03T23:53:45.373Z,99.90
2018-11-03T23:56:13.861Z,99.90
2018-11-03T23:58:42.317Z,99.90
